Hovedside
METAR-TAF:

METAR-TAF

Lufthavner :

Flystasjon

Ämari, Estland

breddegrad: 59-15-44N, lengdegrad: 24-13-07E, høyde over havet: 20 m

Gjeldene værobservasjon

Denne rapporten ble laget for 57 minutter siden, klokken 12:50 UTC
Vind 8 kt fra Sør
Temperatur 8°C
Luftfuktighet 81%
Trykk 1031 hPa
Sikt 10 km eller mer
Brutte skyer i en høyde av 2600 ft

METAR: EEEI 151250Z 18008KT 9999 BKN026 08/05 Q1031 R24/190095 NOSIG

Tid: 15:47 (13:47 UTC)

Varsel

Denne rapporten ble laget for 2 timer og 17 minutter siden, klokken 11:30 UTC
Varsel gyldig fra 15. klokken 12 UTC til 16. klokken 12 UTC
Vind 10 kt fra Sør-sørvest
Sikt 10 km eller mer
Brutte skyer i en høyde av 2500 ft
Sannsynlighet 40% :
Midlertidig
fra 15. klokken 21 UTC til 16. klokken 03 UTC
Brutte skyer i en høyde av 1000 ft
Midlertidig
fra 16. klokken 06 UTC til 16. klokken 12 UTC
Vind 13 kt fra Sørvest med vindkast opp mot 23 kt

TAF: EEEI 151130Z 1512/1612 20010KT 9999 BKN025 PROB40 TEMPO 1521/1603 BKN010 TEMPO 1606/1612 22013G23KT

Værobservasjoner og værvarsel for over 4000 flyplasser (METAR- og TAF-rapporter).

Tilgjengelige stasjoner er representert av de røde og gule prikkene på kartet.

Hold musepekeren over prikken for å se navnet på stasjonen.

Klikk så for å se værobservasjoner og -varsler.

For å forandre kartet kan du klikke på den grønne knappen med svart kryss for å zoome inn, på den grønne knappen med strek for å zoome ut, eller på de grønne pilene for å se tilstøtende kart.


METAR-TAF: